createdAt,value
2022-09-27T00:00:26.775Z,100.00
2022-09-27T00:02:53.459Z,100.00
2022-09-27T00:05:19.996Z,100.00
2022-09-27T00:07:46.546Z,100.00
2022-09-27T00:10:13.133Z,100.00
2022-09-27T00:12:39.664Z,100.00
2022-09-27T00:15:07.126Z,100.00
2022-09-27T00:17:33.821Z,100.00
2022-09-27T00:20:00.479Z,100.00
2022-09-27T00:22:27.491Z,100.00
2022-09-27T00:24:54.302Z,100.00
2022-09-27T00:27:20.906Z,100.00
2022-09-27T00:29:47.709Z,100.00
2022-09-27T00:32:14.681Z,100.00
2022-09-27T00:34:41.835Z,100.00
2022-09-27T00:37:09.153Z,100.00
2022-09-27T00:39:35.663Z,100.00
2022-09-27T00:42:02.171Z,100.00
2022-09-27T00:44:29.155Z,100.00
2022-09-27T00:46:58.621Z,100.00
2022-09-27T00:49:31.093Z,100.00
2022-09-27T00:52:20.866Z,100.00
2022-09-27T00:54:50.866Z,100.00
2022-09-27T00:57:17.883Z,100.00
2022-09-27T00:59:49.975Z,100.00
2022-09-27T01:02:16.789Z,100.00
2022-09-27T01:04:44.032Z,100.00
2022-09-27T01:07:10.572Z,100.00
2022-09-27T01:09:37.664Z,100.00
2022-09-27T01:12:23.022Z,100.00
2022-09-27T01:15:01.816Z,100.00
2022-09-27T01:17:36.032Z,100.00
2022-09-27T01:20:15.594Z,100.00
2022-09-27T01:22:45.771Z,100.00
2022-09-27T01:25:22.698Z,100.00
2022-09-27T01:28:07.858Z,100.00
2022-09-27T01:30:34.409Z,100.00
2022-09-27T01:33:10.471Z,100.00
2022-09-27T01:35:55.637Z,100.00
2022-09-27T01:38:32.071Z,100.00
2022-09-27T01:41:00.242Z,100.00
2022-09-27T01:43:41.861Z,100.00
2022-09-27T01:46:11.775Z,100.00
2022-09-27T01:49:04.409Z,100.00
2022-09-27T01:51:36.250Z,100.00
2022-09-27T01:54:04.661Z,100.00
2022-09-27T01:56:33.548Z,100.00
2022-09-27T01:59:10.878Z,100.00
2022-09-27T02:01:45.532Z,100.00
2022-09-27T02:04:15.677Z,100.00
2022-09-27T02:07:05.861Z,100.00
2022-09-27T02:09:35.463Z,100.00
2022-09-27T02:12:31.341Z,100.00
2022-09-27T02:15:06.915Z,100.00
2022-09-27T02:17:43.847Z,100.00
2022-09-27T02:20:34.718Z,100.00
2022-09-27T02:23:15.254Z,100.00
2022-09-27T02:25:50.413Z,100.00
2022-09-27T02:28:27.291Z,100.00
2022-09-27T02:30:54.278Z,100.00
2022-09-27T02:33:27.022Z,100.00
2022-09-27T02:35:53.842Z,100.00
2022-09-27T02:38:20.949Z,100.00
2022-09-27T02:40:47.897Z,100.00
2022-09-27T02:43:16.424Z,100.00
2022-09-27T02:45:55.722Z,100.00
2022-09-27T02:48:40.681Z,100.00
2022-09-27T02:51:21.750Z,100.00
2022-09-27T02:54:01.785Z,100.00
2022-09-27T02:57:05.563Z,100.00
2022-09-27T02:59:59.590Z,100.00
2022-09-27T03:02:49.517Z,100.00
2022-09-27T03:05:44.010Z,100.00
2022-09-27T03:08:12.018Z,100.00
2022-09-27T03:10:39.026Z,100.00
2022-09-27T03:13:05.686Z,100.00
2022-09-27T03:15:32.535Z,100.00
2022-09-27T03:18:02.072Z,100.00
2022-09-27T03:20:47.060Z,100.00
2022-09-27T03:23:20.788Z,100.00
2022-09-27T03:25:48.518Z,100.00
2022-09-27T03:28:15.688Z,100.00
2022-09-27T03:30:44.937Z,100.00
2022-09-27T03:33:14.341Z,100.00
2022-09-27T03:35:50.048Z,100.00
2022-09-27T03:38:16.768Z,100.00
2022-09-27T03:40:43.323Z,100.00
2022-09-27T03:43:10.882Z,100.00
2022-09-27T03:45:37.471Z,100.00
2022-09-27T03:48:07.214Z,100.00
2022-09-27T03:50:34.410Z,100.00
2022-09-27T03:53:01.110Z,100.00
2022-09-27T03:55:27.670Z,100.00
2022-09-27T03:57:54.161Z,100.00
2022-09-27T04:00:24.061Z,100.00
2022-09-27T04:02:50.643Z,100.00
2022-09-27T04:05:24.125Z,100.00
2022-09-27T04:07:54.993Z,100.00
2022-09-27T04:10:22.203Z,100.00
2022-09-27T04:12:49.843Z,100.00
2022-09-27T04:15:17.823Z,100.00
2022-09-27T04:17:50.598Z,100.00
2022-09-27T04:20:25.929Z,100.00
2022-09-27T04:22:53.018Z,100.00
2022-09-27T04:25:20.558Z,100.00
2022-09-27T04:27:51.977Z,100.00
2022-09-27T04:30:19.078Z,100.00
2022-09-27T04:33:05.813Z,100.00
2022-09-27T04:36:05.550Z,100.00
2022-09-27T04:38:33.583Z,100.00
2022-09-27T04:41:03.173Z,100.00
2022-09-27T04:43:33.258Z,100.00
2022-09-27T04:46:00.239Z,100.00
2022-09-27T04:48:27.623Z,100.00
2022-09-27T04:50:58.357Z,100.00
2022-09-27T04:53:25.209Z,100.00
2022-09-27T04:55:57.417Z,100.00
2022-09-27T04:58:24.577Z,100.00
2022-09-27T05:00:55.839Z,100.00
2022-09-27T05:03:57.686Z,100.00
2022-09-27T05:06:25.460Z,100.00
2022-09-27T05:08:54.425Z,100.00
2022-09-27T05:11:26.838Z,100.00
2022-09-27T05:14:11.977Z,100.00
2022-09-27T05:16:49.019Z,100.00
2022-09-27T05:19:35.801Z,100.00
2022-09-27T05:22:31.695Z,100.00
2022-09-27T05:24:58.356Z,100.00
2022-09-27T05:27:25.102Z,100.00
2022-09-27T05:29:51.597Z,100.00
2022-09-27T05:32:22.441Z,100.00
2022-09-27T05:34:55.626Z,100.00
2022-09-27T05:37:22.536Z,100.00
2022-09-27T05:39:50.002Z,100.00
2022-09-27T05:42:17.570Z,100.00
2022-09-27T05:44:48.418Z,100.00
2022-09-27T05:47:15.971Z,100.00
2022-09-27T05:49:42.605Z,100.00
2022-09-27T05:52:15.099Z,100.00
2022-09-27T05:54:43.829Z,100.00
2022-09-27T05:57:10.360Z,100.00
2022-09-27T05:59:50.815Z,100.00
2022-09-27T06:02:20.373Z,100.00
2022-09-27T06:04:47.265Z,100.00
2022-09-27T06:07:39.451Z,100.00
2022-09-27T06:10:10.673Z,100.00
2022-09-27T06:12:38.671Z,100.00
2022-09-27T06:15:16.433Z,100.00
2022-09-27T06:17:44.981Z,100.00
2022-09-27T06:20:17.140Z,100.00
2022-09-27T06:22:43.747Z,100.00
2022-09-27T06:25:10.426Z,100.00
2022-09-27T06:27:49.207Z,100.00
2022-09-27T06:30:23.927Z,100.00
2022-09-27T06:33:01.782Z,100.00
2022-09-27T06:35:36.330Z,100.00
2022-09-27T06:38:05.014Z,100.00
2022-09-27T06:40:32.410Z,100.00
2022-09-27T06:43:15.913Z,100.00
2022-09-27T06:46:10.662Z,100.00
2022-09-27T06:49:13.032Z,99.96
2022-09-27T06:51:42.464Z,100.00
2022-09-27T06:54:10.237Z,100.00
2022-09-27T06:56:37.314Z,99.39
2022-09-27T06:59:23.010Z,99.46
2022-09-27T07:01:52.752Z,100.00
2022-09-27T07:04:32.403Z,98.88
2022-09-27T07:07:05.178Z,99.36
2022-09-27T07:09:42.503Z,98.10
2022-09-27T07:12:12.676Z,99.38
2022-09-27T07:14:41.163Z,99.18
2022-09-27T07:17:14.745Z,98.20
2022-09-27T07:19:51.262Z,99.50
2022-09-27T07:22:18.434Z,100.00
2022-09-27T07:24:50.655Z,100.00
2022-09-27T07:27:18.207Z,100.00
2022-09-27T07:29:45.190Z,99.65
2022-09-27T07:32:11.871Z,99.13
2022-09-27T07:34:38.802Z,98.71
2022-09-27T07:37:05.995Z,98.55
2022-09-27T07:39:37.850Z,99.85
2022-09-27T07:42:06.114Z,100.00
2022-09-27T07:44:32.812Z,99.36
2022-09-27T07:47:24.665Z,100.00
2022-09-27T07:50:12.716Z,99.43
2022-09-27T07:53:13.764Z,98.33
2022-09-27T07:55:57.166Z,98.58
2022-09-27T07:58:25.310Z,97.01
2022-09-27T08:00:57.051Z,96.68
2022-09-27T08:03:23.715Z,96.32
2022-09-27T08:05:50.291Z,97.20
2022-09-27T08:08:18.273Z,98.78
2022-09-27T08:10:49.059Z,97.96
2022-09-27T08:13:22.311Z,98.71
2022-09-27T08:15:54.496Z,96.98
2022-09-27T08:18:26.555Z,95.19
2022-09-27T08:20:57.273Z,94.72
2022-09-27T08:23:46.707Z,91.29
2022-09-27T08:26:30.028Z,91.36
2022-09-27T08:29:17.263Z,92.37
2022-09-27T08:31:54.372Z,90.83
2022-09-27T08:34:23.028Z,89.91
2022-09-27T08:36:49.682Z,91.13
2022-09-27T08:39:16.611Z,90.85
2022-09-27T08:41:57.355Z,91.73
2022-09-27T08:44:23.938Z,90.61
2022-09-27T08:47:01.542Z,89.66
2022-09-27T08:49:51.532Z,89.46
2022-09-27T08:52:32.151Z,88.32
2022-09-27T08:55:03.171Z,88.53
2022-09-27T08:57:29.729Z,86.58
2022-09-27T09:00:00.088Z,87.53
2022-09-27T09:02:27.364Z,87.45
2022-09-27T09:04:56.191Z,86.70
2022-09-27T09:07:40.866Z,85.28
2022-09-27T09:10:37.519Z,85.41
2022-09-27T09:13:25.861Z,87.30
2022-09-27T09:16:27.604Z,88.86
2022-09-27T09:19:05.201Z,89.32
2022-09-27T09:22:10.763Z,89.11
2022-09-27T09:24:50.085Z,90.37
2022-09-27T09:27:23.517Z,90.41
2022-09-27T09:30:10.021Z,89.42
2022-09-27T09:32:49.689Z,91.86
2022-09-27T09:35:26.262Z,91.61
2022-09-27T09:37:56.641Z,90.67
2022-09-27T09:40:38.546Z,89.20
2022-09-27T09:43:10.516Z,89.05
2022-09-27T09:45:41.653Z,89.63
2022-09-27T09:48:27.124Z,90.34
2022-09-27T09:50:56.346Z,89.83
2022-09-27T09:53:39.329Z,89.72
2022-09-27T09:56:10.652Z,91.08
2022-09-27T09:58:44.215Z,91.06
2022-09-27T10:01:18.778Z,92.56
2022-09-27T10:03:46.595Z,93.56
2022-09-27T10:06:14.500Z,93.99
2022-09-27T10:08:41.582Z,95.97
2022-09-27T10:11:40.684Z,97.68
2022-09-27T10:14:12.567Z,99.62
2022-09-27T10:16:42.546Z,99.92
2022-09-27T10:19:09.925Z,98.48
2022-09-27T10:21:39.975Z,95.98
2022-09-27T10:24:18.250Z,94.22
2022-09-27T10:26:51.896Z,91.16
2022-09-27T10:29:37.025Z,88.10
2022-09-27T10:32:11.967Z,88.03
2022-09-27T10:34:43.039Z,88.53
2022-09-27T10:37:12.606Z,89.02
2022-09-27T10:39:48.960Z,86.65
2022-09-27T10:42:30.601Z,84.66
2022-09-27T10:44:57.160Z,85.56
2022-09-27T10:47:37.487Z,88.81
2022-09-27T10:50:50.832Z,89.93
2022-09-27T10:53:23.902Z,87.84
2022-09-27T10:56:04.514Z,85.45
2022-09-27T10:58:33.396Z,83.02
2022-09-27T11:01:03.347Z,87.89
2022-09-27T11:03:39.472Z,88.14
2022-09-27T11:06:39.213Z,89.24
2022-09-27T11:09:18.818Z,85.08
2022-09-27T11:11:47.794Z,85.19
2022-09-27T11:14:22.517Z,86.65
2022-09-27T11:16:58.275Z,87.74
2022-09-27T11:19:48.864Z,89.76
2022-09-27T11:22:16.592Z,90.89
2022-09-27T11:24:54.235Z,91.23
2022-09-27T11:27:23.778Z,90.73
2022-09-27T11:30:01.137Z,89.79
2022-09-27T11:33:06.627Z,87.35
2022-09-27T11:35:38.972Z,85.49
2022-09-27T11:38:51.206Z,83.56
2022-09-27T11:41:21.686Z,84.22
2022-09-27T11:44:07.651Z,85.44
2022-09-27T11:46:42.402Z,86.50
2022-09-27T11:49:14.339Z,84.32
2022-09-27T11:51:56.414Z,82.90
2022-09-27T11:54:30.792Z,84.05
2022-09-27T11:57:06.927Z,82.71
2022-09-27T11:59:37.649Z,82.30
2022-09-27T12:02:04.102Z,82.51
2022-09-27T12:04:30.854Z,82.57
2022-09-27T12:07:08.809Z,81.67
2022-09-27T12:09:37.885Z,79.70
2022-09-27T12:12:25.907Z,80.49
2022-09-27T12:14:56.307Z,82.90
2022-09-27T12:17:25.694Z,83.62
2022-09-27T12:19:55.191Z,84.32
2022-09-27T12:22:57.563Z,86.12
2022-09-27T12:25:34.326Z,89.17
2022-09-27T12:28:28.442Z,91.36
2022-09-27T12:31:17.679Z,90.84
2022-09-27T12:33:56.044Z,91.33
2022-09-27T12:36:25.663Z,92.09
2022-09-27T12:38:56.122Z,93.39
2022-09-27T12:41:24.086Z,94.04
2022-09-27T12:44:05.737Z,94.91
2022-09-27T12:46:41.548Z,94.23
2022-09-27T12:49:21.358Z,94.60
2022-09-27T12:52:09.839Z,92.87
2022-09-27T12:55:01.934Z,92.50
2022-09-27T12:57:31.551Z,91.25
2022-09-27T13:00:01.383Z,90.78
2022-09-27T13:02:37.529Z,91.58
2022-09-27T13:05:22.439Z,91.96
2022-09-27T13:08:19.102Z,93.62
2022-09-27T13:10:47.367Z,93.70
2022-09-27T13:13:26.569Z,91.85
2022-09-27T13:15:56.876Z,92.26
2022-09-27T13:18:36.062Z,90.13
2022-09-27T13:21:07.757Z,86.23
2022-09-27T13:23:42.287Z,86.85
2022-09-27T13:26:23.810Z,88.97
2022-09-27T13:28:59.802Z,86.30
2022-09-27T13:31:52.071Z,84.64
2022-09-27T13:34:37.346Z,84.63
2022-09-27T13:37:23.038Z,83.85
2022-09-27T13:39:49.704Z,85.06
2022-09-27T13:42:39.336Z,85.91
2022-09-27T13:45:17.511Z,83.78
2022-09-27T13:47:46.933Z,82.63
2022-09-27T13:50:29.212Z,79.27
2022-09-27T13:53:08.276Z,78.50
2022-09-27T13:55:40.359Z,78.18
2022-09-27T13:58:27.842Z,79.03
2022-09-27T14:00:58.579Z,79.97
2022-09-27T14:03:45.233Z,82.24
2022-09-27T14:06:22.493Z,83.48
2022-09-27T14:08:51.666Z,83.53
2022-09-27T14:11:24.968Z,84.68
2022-09-27T14:13:52.270Z,83.34
2022-09-27T14:16:22.058Z,83.33
2022-09-27T14:18:58.461Z,82.46
2022-09-27T14:21:38.268Z,81.58
2022-09-27T14:24:30.609Z,83.07
2022-09-27T14:27:21.093Z,82.88
2022-09-27T14:29:57.973Z,83.93
2022-09-27T14:32:28.967Z,85.17
2022-09-27T14:35:27.307Z,87.43
2022-09-27T14:37:54.386Z,87.99
2022-09-27T14:40:22.234Z,88.23
2022-09-27T14:42:53.281Z,86.83
2022-09-27T14:45:19.698Z,86.70
2022-09-27T14:47:47.350Z,86.27
2022-09-27T14:50:18.849Z,87.52
2022-09-27T14:52:47.405Z,88.05
2022-09-27T14:55:13.977Z,86.76
2022-09-27T14:57:46.095Z,88.18
2022-09-27T15:00:20.911Z,88.24
2022-09-27T15:02:48.668Z,90.16
2022-09-27T15:05:16.607Z,89.36
2022-09-27T15:07:44.022Z,88.66
2022-09-27T15:10:17.033Z,88.90
2022-09-27T15:12:46.565Z,87.27
2022-09-27T15:15:13.963Z,88.51
2022-09-27T15:17:44.619Z,87.39
2022-09-27T15:20:31.058Z,87.67
2022-09-27T15:23:04.908Z,86.03
2022-09-27T15:25:36.702Z,86.22
2022-09-27T15:28:11.938Z,85.92
2022-09-27T15:30:39.854Z,88.45
2022-09-27T15:33:07.611Z,86.57
2022-09-27T15:35:35.829Z,87.20
2022-09-27T15:38:11.563Z,87.91
2022-09-27T15:40:42.904Z,86.47
2022-09-27T15:43:19.991Z,86.26
2022-09-27T15:45:50.506Z,85.92
2022-09-27T15:48:18.537Z,88.19
2022-09-27T15:50:45.042Z,89.29
2022-09-27T15:53:11.521Z,90.88
2022-09-27T15:55:42.213Z,91.33
2022-09-27T15:58:14.149Z,91.23
2022-09-27T16:00:50.494Z,92.11
2022-09-27T16:03:16.973Z,91.46
2022-09-27T16:05:43.885Z,91.36
2022-09-27T16:08:10.934Z,90.72
2022-09-27T16:10:43.914Z,89.84
2022-09-27T16:13:10.462Z,88.72
2022-09-27T16:15:37.323Z,88.48
2022-09-27T16:18:03.818Z,88.46
2022-09-27T16:20:32.039Z,85.61
2022-09-27T16:22:58.600Z,87.30
2022-09-27T16:25:25.378Z,88.75
2022-09-27T16:27:52.508Z,89.37
2022-09-27T16:30:20.610Z,90.22
2022-09-27T16:32:48.043Z,91.73
2022-09-27T16:35:15.185Z,92.65
2022-09-27T16:37:41.646Z,93.62
2022-09-27T16:40:08.884Z,93.13
2022-09-27T16:42:35.912Z,94.63
2022-09-27T16:45:07.396Z,96.53
2022-09-27T16:47:36.373Z,97.30
2022-09-27T16:50:22.018Z,96.74
2022-09-27T16:52:50.043Z,97.25
2022-09-27T16:55:21.137Z,97.32
2022-09-27T16:57:48.102Z,96.38
2022-09-27T17:00:15.112Z,97.50
2022-09-27T17:02:43.558Z,98.12
2022-09-27T17:05:11.211Z,98.63
2022-09-27T17:07:37.686Z,98.44
2022-09-27T17:10:04.909Z,99.04
2022-09-27T17:12:31.795Z,98.04
2022-09-27T17:14:58.267Z,97.85
2022-09-27T17:17:25.757Z,97.13
2022-09-27T17:19:52.199Z,97.02
2022-09-27T17:22:18.642Z,95.91
2022-09-27T17:24:45.074Z,95.21
2022-09-27T17:27:11.594Z,94.90
2022-09-27T17:29:38.847Z,94.33
2022-09-27T17:32:08.583Z,94.33
2022-09-27T17:34:43.518Z,93.26
2022-09-27T17:37:10.914Z,93.35
2022-09-27T17:39:38.048Z,94.31
2022-09-27T17:42:04.638Z,94.09
2022-09-27T17:44:31.431Z,93.86
2022-09-27T17:47:18.138Z,94.42
2022-09-27T17:50:22.820Z,94.98
2022-09-27T17:52:49.480Z,94.84
2022-09-27T17:55:15.997Z,96.20
2022-09-27T17:57:42.496Z,96.47
2022-09-27T18:00:09.283Z,97.16
2022-09-27T18:02:42.003Z,100.00
2022-09-27T18:05:09.812Z,99.57
2022-09-27T18:07:37.346Z,99.14
2022-09-27T18:10:04.659Z,99.18
2022-09-27T18:12:34.902Z,98.69
2022-09-27T18:15:02.222Z,97.86
2022-09-27T18:17:28.752Z,95.93
2022-09-27T18:19:56.976Z,95.71
2022-09-27T18:22:29.395Z,96.24
2022-09-27T18:24:55.833Z,97.66
2022-09-27T18:27:22.358Z,99.72
2022-09-27T18:29:48.826Z,99.45
2022-09-27T18:32:15.265Z,99.97
2022-09-27T18:34:41.731Z,99.36
2022-09-27T18:37:08.212Z,99.38
2022-09-27T18:39:34.657Z,99.54
2022-09-27T18:42:01.150Z,99.48
2022-09-27T18:44:28.613Z,99.58
2022-09-27T18:46:55.880Z,99.62
2022-09-27T18:49:26.369Z,99.58
2022-09-27T18:51:54.289Z,97.95
2022-09-27T18:54:21.478Z,97.22
2022-09-27T18:56:48.907Z,97.95
2022-09-27T18:59:15.710Z,98.06
2022-09-27T19:01:45.092Z,97.78
2022-09-27T19:04:13.694Z,98.21
2022-09-27T19:06:40.570Z,99.24
2022-09-27T19:09:07.277Z,99.61
2022-09-27T19:11:36.170Z,99.38
2022-09-27T19:14:02.647Z,99.09
2022-09-27T19:16:29.489Z,99.18
2022-09-27T19:18:56.048Z,100.00
2022-09-27T19:21:24.367Z,100.00
2022-09-27T19:23:51.486Z,100.00
2022-09-27T19:26:19.158Z,100.00
2022-09-27T19:28:46.453Z,100.00
2022-09-27T19:31:14.976Z,100.00
2022-09-27T19:33:41.449Z,100.00
2022-09-27T19:36:09.326Z,100.00
2022-09-27T19:38:36.585Z,100.00
2022-09-27T19:41:04.169Z,100.00
2022-09-27T19:43:33.350Z,100.00
2022-09-27T19:46:15.125Z,100.00
2022-09-27T19:48:42.461Z,100.00
2022-09-27T19:51:12.558Z,99.90
2022-09-27T19:53:39.565Z,99.43
2022-09-27T19:56:07.505Z,99.18
2022-09-27T19:58:34.802Z,99.46
2022-09-27T20:01:06.311Z,99.90
2022-09-27T20:03:33.308Z,98.86
2022-09-27T20:06:00.058Z,98.73
2022-09-27T20:08:27.185Z,98.18
2022-09-27T20:11:06.347Z,98.47
2022-09-27T20:13:33.993Z,99.36
2022-09-27T20:16:03.205Z,98.83
2022-09-27T20:18:29.768Z,98.43
2022-09-27T20:20:59.471Z,99.13
2022-09-27T20:23:25.999Z,99.61
2022-09-27T20:25:52.488Z,99.97
2022-09-27T20:28:18.911Z,99.52
2022-09-27T20:30:54.940Z,97.89
2022-09-27T20:33:40.161Z,98.36
2022-09-27T20:36:16.716Z,99.29
2022-09-27T20:39:09.176Z,99.46
2022-09-27T20:41:36.897Z,99.97
2022-09-27T20:44:05.543Z,99.36
2022-09-27T20:46:32.743Z,99.97
2022-09-27T20:49:00.358Z,99.04
2022-09-27T20:51:27.445Z,99.56
2022-09-27T20:53:54.146Z,98.82
2022-09-27T20:56:22.143Z,98.77
2022-09-27T20:58:49.614Z,99.14
2022-09-27T21:01:16.623Z,99.16
2022-09-27T21:03:43.367Z,97.99
2022-09-27T21:06:09.846Z,97.93
2022-09-27T21:08:36.434Z,97.38
2022-09-27T21:11:04.001Z,98.14
2022-09-27T21:13:30.410Z,98.16
2022-09-27T21:16:01.137Z,97.95
2022-09-27T21:18:27.663Z,97.94
2022-09-27T21:21:00.911Z,97.89
2022-09-27T21:23:29.773Z,98.54
2022-09-27T21:26:02.505Z,97.43
2022-09-27T21:28:33.054Z,98.12
2022-09-27T21:31:01.507Z,98.12
2022-09-27T21:33:27.924Z,99.49
2022-09-27T21:35:54.347Z,98.83
2022-09-27T21:38:22.499Z,98.79
2022-09-27T21:40:56.196Z,99.83
2022-09-27T21:43:26.401Z,100.00
2022-09-27T21:45:52.895Z,100.00
2022-09-27T21:48:19.322Z,100.00
2022-09-27T21:50:45.822Z,100.00
2022-09-27T21:53:12.225Z,100.00
2022-09-27T21:55:38.623Z,100.00
2022-09-27T21:58:05.070Z,100.00
2022-09-27T22:00:31.506Z,100.00
2022-09-27T22:02:58.326Z,100.00
2022-09-27T22:05:24.758Z,100.00
2022-09-27T22:07:51.225Z,100.00
2022-09-27T22:10:17.691Z,100.00
2022-09-27T22:12:44.102Z,100.00
2022-09-27T22:15:10.564Z,100.00
2022-09-27T22:17:36.989Z,100.00
2022-09-27T22:20:03.514Z,100.00
2022-09-27T22:22:30.024Z,100.00
2022-09-27T22:24:56.438Z,100.00
2022-09-27T22:27:22.926Z,100.00
2022-09-27T22:29:49.349Z,100.00
2022-09-27T22:32:15.860Z,100.00
2022-09-27T22:34:42.281Z,100.00
2022-09-27T22:37:08.696Z,100.00
2022-09-27T22:39:35.206Z,100.00
2022-09-27T22:42:01.618Z,100.00
2022-09-27T22:44:28.086Z,100.00
2022-09-27T22:46:54.569Z,100.00
2022-09-27T22:49:21.298Z,100.00
2022-09-27T22:51:47.762Z,100.00
2022-09-27T22:54:14.362Z,100.00
2022-09-27T22:56:40.825Z,100.00
2022-09-27T22:59:07.347Z,100.00
2022-09-27T23:01:35.040Z,100.00
2022-09-27T23:04:01.754Z,100.00
2022-09-27T23:06:28.331Z,100.00
2022-09-27T23:08:56.249Z,100.00
2022-09-27T23:11:23.019Z,100.00
2022-09-27T23:13:50.163Z,100.00
2022-09-27T23:16:18.496Z,100.00
2022-09-27T23:18:46.358Z,100.00
2022-09-27T23:21:14.166Z,100.00
2022-09-27T23:23:41.898Z,100.00
2022-09-27T23:26:10.263Z,100.00
2022-09-27T23:28:36.919Z,100.00
2022-09-27T23:31:08.303Z,100.00
2022-09-27T23:33:35.937Z,100.00
2022-09-27T23:36:02.946Z,100.00
2022-09-27T23:38:30.771Z,100.00
2022-09-27T23:40:57.551Z,100.00
2022-09-27T23:43:24.107Z,100.00
2022-09-27T23:45:50.876Z,100.00
2022-09-27T23:48:18.026Z,100.00
2022-09-27T23:50:44.544Z,100.00
2022-09-27T23:53:10.953Z,100.00
2022-09-27T23:55:37.369Z,100.00
2022-09-27T23:58:03.794Z,100.00
